createdAt,value
2018-09-08T00:00:11.276Z,11.90
2018-09-08T00:02:38.831Z,11.90
2018-09-08T00:05:06.526Z,11.90
2018-09-08T00:07:35.939Z,11.80
2018-09-08T00:10:04.087Z,11.70
2018-09-08T00:12:31.808Z,11.70
2018-09-08T00:15:05.371Z,11.70
2018-09-08T00:17:38.767Z,11.70
2018-09-08T00:20:11.984Z,11.70
2018-09-08T00:22:45.426Z,11.70
2018-09-08T00:25:18.650Z,11.70
2018-09-08T00:27:58.699Z,11.70
2018-09-08T00:30:26.315Z,11.70
2018-09-08T00:32:54.004Z,11.60
2018-09-08T00:35:21.981Z,11.60
2018-09-08T00:37:49.632Z,11.50
2018-09-08T00:40:17.176Z,11.40
2018-09-08T00:42:47.427Z,11.30
2018-09-08T00:45:15.281Z,11.30
2018-09-08T00:47:42.962Z,11.20
2018-09-08T00:50:10.738Z,11.10
2018-09-08T00:52:38.527Z,11.10
2018-09-08T00:55:06.515Z,11.00
2018-09-08T00:57:34.036Z,11.10
2018-09-08T01:00:01.870Z,11.00
2018-09-08T01:02:29.457Z,11.00
2018-09-08T01:04:58.151Z,11.00
2018-09-08T01:07:30.642Z,11.00
2018-09-08T01:09:59.470Z,10.90
2018-09-08T01:12:28.210Z,10.90
2018-09-08T01:14:56.396Z,10.90
2018-09-08T01:17:24.646Z,10.90
2018-09-08T01:19:52.413Z,10.90
2018-09-08T01:22:20.199Z,10.90
2018-09-08T01:24:47.788Z,10.90
2018-09-08T01:27:15.351Z,10.90
2018-09-08T01:29:43.027Z,10.80
2018-09-08T01:32:10.668Z,10.70
2018-09-08T01:34:38.335Z,10.70
2018-09-08T01:37:05.920Z,10.80
2018-09-08T01:39:33.626Z,10.80
2018-09-08T01:42:01.291Z,10.80
2018-09-08T01:44:28.859Z,10.80
2018-09-08T01:46:56.579Z,10.50
2018-09-08T01:49:24.184Z,10.60
2018-09-08T01:51:51.997Z,10.60
2018-09-08T01:54:19.632Z,10.60
2018-09-08T01:56:47.196Z,10.70
2018-09-08T01:59:14.907Z,10.60
2018-09-08T02:01:42.480Z,10.70
2018-09-08T02:04:10.239Z,10.70
2018-09-08T02:06:39.190Z,10.60
2018-09-08T02:09:07.622Z,10.50
2018-09-08T02:11:35.409Z,10.50
2018-09-08T02:14:03.171Z,10.60
2018-09-08T02:16:30.936Z,10.40
2018-09-08T02:18:58.677Z,10.40
2018-09-08T02:21:26.471Z,10.30
2018-09-08T02:23:54.590Z,10.30
2018-09-08T02:26:22.936Z,10.30
2018-09-08T02:28:50.486Z,10.40
2018-09-08T02:31:18.149Z,10.40
2018-09-08T02:33:45.799Z,10.40
2018-09-08T02:36:13.373Z,10.30
2018-09-08T02:38:41.244Z,10.30
2018-09-08T02:41:09.028Z,10.30
2018-09-08T02:43:36.539Z,10.30
2018-09-08T02:46:04.460Z,10.30
2018-09-08T02:48:32.241Z,10.40
2018-09-08T02:50:58.714Z,10.30
2018-09-08T02:53:25.352Z,10.40
2018-09-08T02:55:51.807Z,10.10
2018-09-08T02:58:18.264Z,10.20
2018-09-08T03:00:44.703Z,10.20
2018-09-08T03:03:11.185Z,10.30
2018-09-08T03:05:37.654Z,10.30
2018-09-08T03:08:04.103Z,10.30
2018-09-08T03:10:30.531Z,10.00
2018-09-08T03:12:56.979Z,10.10
2018-09-08T03:15:23.418Z,10.00
2018-09-08T03:17:49.952Z,10.10
2018-09-08T03:20:16.395Z,10.00
2018-09-08T03:22:42.831Z,10.00
2018-09-08T03:25:09.315Z,10.10
2018-09-08T03:27:36.324Z,10.10
2018-09-08T03:30:02.919Z,10.20
2018-09-08T03:32:29.967Z,10.20
2018-09-08T03:34:56.414Z,10.10
2018-09-08T03:37:22.858Z,10.10
2018-09-08T03:39:49.320Z,10.10
2018-09-08T03:42:15.756Z,10.10
2018-09-08T03:44:42.466Z,10.10
2018-09-08T03:47:08.919Z,10.10
2018-09-08T03:49:35.367Z,10.10
2018-09-08T03:52:01.803Z,10.00
2018-09-08T03:54:28.275Z,10.00
2018-09-08T03:56:54.744Z,9.90
2018-09-08T03:59:21.175Z,9.90
2018-09-08T04:01:47.681Z,9.90
2018-09-08T04:04:15.242Z,9.90
2018-09-08T04:06:42.886Z,9.90
2018-09-08T04:09:11.248Z,9.90
2018-09-08T04:11:39.136Z,9.90
2018-09-08T04:14:07.208Z,9.80
2018-09-08T04:16:34.930Z,9.80
2018-09-08T04:19:02.526Z,9.80
2018-09-08T04:21:30.085Z,9.80
2018-09-08T04:23:57.858Z,9.80
2018-09-08T04:26:25.428Z,9.80
2018-09-08T04:28:53.826Z,9.80
2018-09-08T04:31:21.584Z,9.50
2018-09-08T04:33:49.209Z,9.50
2018-09-08T04:36:16.831Z,9.60
2018-09-08T04:38:44.355Z,9.60
2018-09-08T04:41:11.940Z,9.60
2018-09-08T04:43:40.151Z,9.70
2018-09-08T04:46:07.882Z,9.70
2018-09-08T04:48:35.548Z,9.70
2018-09-08T04:51:03.227Z,9.60
2018-09-08T04:53:30.764Z,9.60
2018-09-08T04:55:58.664Z,9.60
2018-09-08T04:58:26.216Z,9.60
2018-09-08T05:00:53.783Z,9.70
2018-09-08T05:03:21.926Z,9.70
2018-09-08T05:05:49.689Z,9.70
2018-09-08T05:08:17.272Z,9.70
2018-09-08T05:10:44.863Z,9.70
2018-09-08T05:13:12.696Z,9.70
2018-09-08T05:15:40.359Z,9.70
2018-09-08T05:18:08.091Z,9.70
2018-09-08T05:20:35.903Z,9.70
2018-09-08T05:23:04.196Z,9.70
2018-09-08T05:25:32.392Z,9.70
2018-09-08T05:27:59.928Z,9.50
2018-09-08T05:30:27.614Z,9.60
2018-09-08T05:32:55.255Z,9.70
2018-09-08T05:35:22.811Z,9.70
2018-09-08T05:37:50.368Z,9.80
2018-09-08T05:40:17.964Z,9.80
2018-09-08T05:42:46.013Z,9.90
2018-09-08T05:45:13.800Z,10.00
2018-09-08T05:47:41.374Z,10.00
2018-09-08T05:50:09.004Z,10.10
2018-09-08T05:52:36.613Z,10.20
2018-09-08T05:55:04.438Z,10.40
2018-09-08T05:57:32.026Z,10.50
2018-09-08T05:59:59.598Z,10.60
2018-09-08T06:02:27.297Z,10.60
2018-09-08T06:04:55.096Z,10.70
2018-09-08T06:07:23.191Z,10.90
2018-09-08T06:09:50.788Z,11.10
2018-09-08T06:12:18.459Z,11.40
2018-09-08T06:14:46.382Z,11.60
2018-09-08T06:17:13.945Z,11.80
2018-09-08T06:19:41.504Z,12.00
2018-09-08T06:22:09.125Z,12.10
2018-09-08T06:24:36.716Z,12.20
2018-09-08T06:27:04.574Z,12.50
2018-09-08T06:29:32.251Z,12.60
2018-09-08T06:32:00.000Z,12.60
2018-09-08T06:34:27.574Z,12.80
2018-09-08T06:36:55.219Z,12.90
2018-09-08T06:39:22.831Z,13.00
2018-09-08T06:41:50.600Z,13.30
2018-09-08T06:44:18.469Z,13.50
2018-09-08T06:46:46.024Z,13.70
2018-09-08T06:49:13.680Z,14.00
2018-09-08T06:51:42.060Z,14.30
2018-09-08T06:54:09.876Z,14.60
2018-09-08T06:56:37.608Z,14.80
2018-09-08T06:59:05.275Z,14.90
2018-09-08T07:01:32.841Z,14.90
2018-09-08T07:04:00.472Z,15.10
2018-09-08T07:06:28.077Z,14.90
2018-09-08T07:08:55.695Z,14.90
2018-09-08T07:11:23.547Z,15.30
2018-09-08T07:13:51.044Z,15.40
2018-09-08T07:16:18.675Z,15.50
2018-09-08T07:18:46.267Z,15.30
2018-09-08T07:21:13.930Z,15.00
2018-09-08T07:23:41.576Z,15.10
2018-09-08T07:26:09.191Z,15.10
2018-09-08T07:28:36.827Z,15.00
2018-09-08T07:31:04.756Z,15.30
2018-09-08T07:33:32.494Z,15.40
2018-09-08T07:36:00.138Z,15.80
2018-09-08T07:38:27.795Z,16.00
2018-09-08T07:40:55.383Z,16.40
2018-09-08T07:43:23.104Z,16.70
2018-09-08T07:45:50.639Z,16.80
2018-09-08T07:48:18.204Z,16.90
2018-09-08T07:50:45.827Z,17.00
2018-09-08T07:53:13.825Z,17.10
2018-09-08T07:55:41.279Z,17.50
2018-09-08T07:58:08.947Z,17.70
2018-09-08T08:00:36.504Z,18.00
2018-09-08T08:03:04.085Z,18.20
2018-09-08T08:05:31.712Z,18.40
2018-09-08T08:07:59.383Z,18.60
2018-09-08T08:10:26.932Z,19.00
2018-09-08T08:12:55.380Z,19.10
2018-09-08T08:15:23.076Z,19.30
2018-09-08T08:17:50.745Z,19.40
2018-09-08T08:20:18.365Z,20.00
2018-09-08T08:22:46.247Z,20.60
2018-09-08T08:25:14.005Z,20.50
2018-09-08T08:27:41.655Z,20.70
2018-09-08T08:30:09.627Z,21.20
2018-09-08T08:32:37.151Z,21.40
2018-09-08T08:35:04.803Z,21.60
2018-09-08T08:37:32.618Z,21.20
2018-09-08T08:40:00.174Z,21.40
2018-09-08T08:42:27.951Z,21.90
2018-09-08T08:44:56.209Z,21.80
2018-09-08T08:47:23.900Z,22.10
2018-09-08T08:50:02.867Z,22.20
2018-09-08T08:52:41.912Z,22.20
2018-09-08T08:55:08.351Z,22.70
2018-09-08T08:57:35.951Z,22.60
2018-09-08T09:00:03.908Z,23.20
2018-09-08T09:02:31.711Z,23.50
2018-09-08T09:04:59.304Z,24.30
2018-09-08T09:07:27.967Z,23.90
2018-09-08T09:09:56.636Z,23.90
2018-09-08T09:12:24.443Z,23.60
2018-09-08T09:14:51.986Z,23.80
2018-09-08T09:17:19.639Z,24.10
2018-09-08T09:19:58.583Z,24.20
2018-09-08T09:24:13.905Z,24.90
2018-09-08T09:26:41.480Z,24.90
2018-09-08T09:29:09.588Z,24.80
2018-09-08T09:31:37.212Z,24.70
2018-09-08T09:34:05.030Z,23.70
2018-09-08T09:36:33.219Z,24.20
2018-09-08T09:39:00.972Z,23.40
2018-09-08T09:41:28.527Z,23.00
2018-09-08T09:43:56.046Z,22.60
2018-09-08T09:46:23.751Z,22.60
2018-09-08T09:48:51.424Z,22.60
2018-09-08T09:51:19.171Z,22.00
2018-09-08T09:53:46.832Z,21.80
2018-09-08T09:56:14.628Z,21.70
2018-09-08T09:58:42.240Z,21.80
2018-09-08T10:01:10.412Z,21.80
2018-09-08T10:03:37.919Z,22.10
2018-09-08T10:06:05.490Z,22.40
2018-09-08T10:08:33.107Z,22.10
2018-09-08T10:11:00.791Z,22.70
2018-09-08T10:13:28.355Z,23.40
2018-09-08T10:15:56.067Z,23.60
2018-09-08T10:18:23.795Z,24.60
2018-09-08T10:20:51.619Z,24.50
2018-09-08T10:23:19.450Z,24.00
2018-09-08T10:25:47.206Z,24.20
2018-09-08T10:28:14.887Z,24.70
2018-09-08T10:30:43.373Z,25.00
2018-09-08T10:33:11.022Z,25.80
2018-09-08T10:35:39.522Z,26.20
2018-09-08T10:38:07.602Z,26.60
2018-09-08T10:40:35.399Z,27.10
2018-09-08T10:43:03.978Z,26.80
2018-09-08T10:45:31.616Z,26.30
2018-09-08T10:48:00.364Z,25.20
2018-09-08T10:50:28.915Z,25.60
2018-09-08T10:52:56.667Z,26.10
2018-09-08T10:55:24.428Z,25.60
2018-09-08T10:57:52.032Z,25.40
2018-09-08T11:00:19.617Z,23.60
2018-09-08T11:02:47.693Z,24.40
2018-09-08T11:05:15.288Z,25.10
2018-09-08T11:07:42.854Z,25.30
2018-09-08T11:10:10.623Z,24.80
2018-09-08T11:12:39.176Z,24.20
2018-09-08T11:15:08.527Z,24.40
2018-09-08T11:17:36.233Z,24.80
2018-09-08T11:20:04.215Z,24.50
2018-09-08T11:22:31.991Z,25.20
2018-09-08T11:24:59.959Z,25.30
2018-09-08T11:27:27.723Z,25.40
2018-09-08T11:29:56.056Z,25.20
2018-09-08T11:32:23.713Z,25.10
2018-09-08T11:34:51.695Z,25.60
2018-09-08T11:37:19.611Z,25.90
2018-09-08T11:39:47.343Z,26.10
2018-09-08T11:42:14.864Z,25.80
2018-09-08T11:44:42.766Z,25.80
2018-09-08T11:47:10.319Z,25.70
2018-09-08T11:49:38.084Z,25.90
2018-09-08T11:52:05.740Z,26.00
2018-09-08T11:54:33.429Z,26.10
2018-09-08T11:57:01.108Z,26.20
2018-09-08T11:59:28.683Z,26.20
2018-09-08T12:01:56.235Z,26.30
2018-09-08T12:04:23.915Z,26.40
2018-09-08T12:06:51.719Z,26.50
2018-09-08T12:09:19.279Z,26.60
2018-09-08T12:11:46.902Z,26.10
2018-09-08T12:14:15.259Z,26.30
2018-09-08T12:16:43.028Z,26.20
2018-09-08T12:19:11.305Z,25.50
2018-09-08T12:21:38.911Z,25.90
2018-09-08T12:24:06.453Z,26.30
2018-09-08T12:26:34.199Z,26.90
2018-09-08T12:29:01.990Z,27.40
2018-09-08T12:31:29.535Z,27.20
2018-09-08T12:33:57.092Z,27.70
2018-09-08T12:36:24.759Z,27.50
2018-09-08T12:38:52.429Z,27.30
2018-09-08T12:41:20.233Z,26.10
2018-09-08T12:43:48.105Z,26.40
2018-09-08T12:46:15.788Z,26.50
2018-09-08T12:48:43.663Z,26.60
2018-09-08T12:51:11.247Z,26.00
2018-09-08T12:53:38.960Z,25.60
2018-09-08T12:56:06.855Z,25.90
2018-09-08T12:58:34.693Z,26.20
2018-09-08T13:01:02.404Z,25.80
2018-09-08T13:03:30.223Z,25.60
2018-09-08T13:05:58.064Z,25.20
2018-09-08T13:08:25.628Z,24.90
2018-09-08T13:10:53.363Z,24.90
2018-09-08T13:13:21.034Z,25.10
2018-09-08T13:15:48.784Z,25.50
2018-09-08T13:18:16.567Z,25.90
2018-09-08T13:20:44.123Z,26.20
2018-09-08T13:23:11.907Z,26.40
2018-09-08T13:25:39.600Z,26.50
2018-09-08T13:28:07.370Z,26.10
2018-09-08T13:30:34.975Z,26.10
2018-09-08T13:33:02.922Z,26.10
2018-09-08T13:35:30.748Z,26.10
2018-09-08T13:37:58.492Z,25.70
2018-09-08T13:40:26.084Z,25.10
2018-09-08T13:42:53.627Z,25.30
2018-09-08T13:45:21.428Z,25.50
2018-09-08T13:47:49.045Z,25.50
2018-09-08T13:50:16.755Z,25.50
2018-09-08T13:52:44.568Z,25.40
2018-09-08T13:55:12.288Z,25.00
2018-09-08T13:57:39.958Z,24.80
2018-09-08T14:00:07.724Z,24.80
2018-09-08T14:02:35.503Z,25.00
2018-09-08T14:05:03.273Z,25.20
2018-09-08T14:07:30.931Z,25.30
2018-09-08T14:09:58.747Z,25.20
2018-09-08T14:12:26.887Z,25.10
2018-09-08T14:14:54.547Z,24.80
2018-09-08T14:17:22.083Z,24.60
2018-09-08T14:19:49.943Z,24.60
2018-09-08T14:22:17.483Z,24.50
2018-09-08T14:24:45.239Z,24.60
2018-09-08T14:27:13.059Z,24.70
2018-09-08T14:29:40.799Z,24.80
2018-09-08T14:32:08.618Z,24.90
2018-09-08T14:34:36.159Z,24.90
2018-09-08T14:37:03.850Z,24.80
2018-09-08T14:39:31.560Z,24.80
2018-09-08T14:41:59.272Z,24.80
2018-09-08T14:44:26.783Z,24.70
2018-09-08T14:46:54.660Z,24.80
2018-09-08T14:49:22.271Z,24.90
2018-09-08T14:51:49.931Z,24.60
2018-09-08T14:54:17.485Z,24.80
2018-09-08T14:56:45.378Z,24.90
2018-09-08T14:59:13.219Z,25.10
2018-09-08T15:01:40.883Z,25.20
2018-09-08T15:04:08.552Z,25.30
2018-09-08T15:06:36.108Z,25.30
2018-09-08T15:09:05.893Z,25.60
2018-09-08T15:11:34.069Z,25.80
2018-09-08T15:14:01.708Z,26.10
2018-09-08T15:16:29.305Z,26.40
2018-09-08T15:18:57.095Z,27.00
2018-09-08T15:21:24.815Z,27.70
2018-09-08T15:23:52.553Z,28.90
2018-09-08T15:26:20.187Z,30.10
2018-09-08T15:28:47.843Z,31.00
2018-09-08T15:31:15.384Z,31.60
2018-09-08T15:33:43.022Z,30.50
2018-09-08T15:36:11.539Z,31.90
2018-09-08T15:38:39.068Z,32.90
2018-09-08T15:41:06.658Z,33.30
2018-09-08T15:43:34.544Z,31.10
2018-09-08T15:46:02.308Z,32.20
2018-09-08T15:48:29.924Z,33.10
2018-09-08T15:50:57.582Z,33.60
2018-09-08T15:53:25.298Z,34.20
2018-09-08T15:55:52.931Z,34.40
2018-09-08T15:58:20.761Z,33.30
2018-09-08T16:00:48.943Z,33.40
2018-09-08T16:03:16.653Z,33.30
2018-09-08T16:05:44.387Z,33.20
2018-09-08T16:08:12.000Z,33.20
2018-09-08T16:10:40.969Z,31.60
2018-09-08T16:13:08.767Z,31.60
2018-09-08T16:15:36.744Z,30.80
2018-09-08T16:18:04.531Z,30.20
2018-09-08T16:20:32.303Z,29.90
2018-09-08T16:23:00.192Z,29.40
2018-09-08T16:25:27.715Z,29.00
2018-09-08T16:27:55.416Z,28.30
2018-09-08T16:30:23.255Z,27.60
2018-09-08T16:32:51.068Z,27.10
2018-09-08T16:35:18.740Z,26.60
2018-09-08T16:37:46.331Z,26.00
2018-09-08T16:40:14.051Z,25.70
2018-09-08T16:42:41.872Z,25.20
2018-09-08T16:45:09.782Z,24.90
2018-09-08T16:47:37.420Z,24.40
2018-09-08T16:50:05.204Z,24.10
2018-09-08T16:52:32.974Z,24.10
2018-09-08T16:55:00.483Z,23.90
2018-09-08T16:57:28.415Z,23.70
2018-09-08T16:59:56.088Z,23.60
2018-09-08T17:02:24.076Z,23.40
2018-09-08T17:04:51.998Z,23.30
2018-09-08T17:07:20.279Z,23.20
2018-09-08T17:09:48.128Z,23.00
2018-09-08T17:12:15.937Z,22.90
2018-09-08T17:14:43.585Z,22.50
2018-09-08T17:17:11.132Z,22.50
2018-09-08T17:19:38.710Z,22.40
2018-09-08T17:22:06.988Z,22.20
2018-09-08T17:24:34.547Z,22.10
2018-09-08T17:27:02.173Z,22.00
2018-09-08T17:29:30.179Z,21.80
2018-09-08T17:31:57.696Z,21.50
2018-09-08T17:34:25.331Z,21.30
2018-09-08T17:36:53.188Z,20.90
2018-09-08T17:39:20.836Z,20.60
2018-09-08T17:41:48.530Z,20.50
2018-09-08T17:44:16.124Z,20.20
2018-09-08T17:46:44.043Z,20.20
2018-09-08T17:49:11.687Z,20.20
2018-09-08T17:51:39.255Z,20.00
2018-09-08T17:54:07.001Z,20.00
2018-09-08T17:56:34.570Z,19.90
2018-09-08T17:59:02.556Z,19.70
2018-09-08T18:01:30.111Z,19.60
2018-09-08T18:03:57.855Z,19.60
2018-09-08T18:06:25.716Z,19.50
2018-09-08T18:08:54.103Z,19.40
2018-09-08T18:11:21.851Z,19.30
2018-09-08T18:13:49.400Z,19.30
2018-09-08T18:16:17.065Z,19.10
2018-09-08T18:18:44.679Z,18.80
2018-09-08T18:21:12.585Z,18.70
2018-09-08T18:23:40.920Z,18.70
2018-09-08T18:26:08.448Z,18.50
2018-09-08T18:28:36.871Z,18.40
2018-09-08T18:31:04.538Z,18.30
2018-09-08T18:33:32.424Z,18.20
2018-09-08T18:36:00.547Z,18.10
2018-09-08T18:38:28.423Z,18.00
2018-09-08T18:40:56.120Z,17.90
2018-09-08T18:43:23.851Z,17.70
2018-09-08T18:45:51.851Z,17.60
2018-09-08T18:48:19.620Z,17.60
2018-09-08T18:50:47.231Z,17.50
2018-09-08T18:53:14.931Z,17.30
2018-09-08T18:55:42.691Z,17.20
2018-09-08T18:58:10.755Z,16.90
2018-09-08T19:00:38.529Z,16.90
2018-09-08T19:03:06.716Z,16.90
2018-09-08T19:05:34.447Z,16.80
2018-09-08T19:08:02.399Z,16.80
2018-09-08T19:10:34.573Z,16.80
2018-09-08T19:13:02.678Z,16.60
2018-09-08T19:15:30.468Z,16.50
2018-09-08T19:17:58.099Z,16.30
2018-09-08T19:20:31.949Z,16.30
2018-09-08T19:22:59.588Z,16.20
2018-09-08T19:25:27.295Z,15.90
2018-09-08T19:27:54.976Z,15.90
2018-09-08T19:30:22.871Z,15.90
2018-09-08T19:32:50.544Z,15.90
2018-09-08T19:35:23.880Z,15.90
2018-09-08T19:37:52.139Z,15.80
2018-09-08T19:40:25.559Z,15.80
2018-09-08T19:42:53.212Z,15.50
2018-09-08T19:45:20.852Z,15.60
2018-09-08T19:47:54.099Z,15.50
2018-09-08T19:50:22.553Z,15.50
2018-09-08T19:52:55.843Z,15.50
2018-09-08T19:55:23.791Z,15.40
2018-09-08T19:57:57.195Z,15.20
2018-09-08T20:00:25.203Z,15.00
2018-09-08T20:02:52.771Z,15.00
2018-09-08T20:05:20.706Z,15.00
2018-09-08T20:07:48.463Z,14.90
2018-09-08T20:10:16.195Z,14.90
2018-09-08T20:12:44.035Z,14.80
2018-09-08T20:15:11.739Z,14.70
2018-09-08T20:17:39.459Z,14.60
2018-09-08T20:20:07.105Z,14.50
2018-09-08T20:22:35.115Z,14.50
2018-09-08T20:25:03.160Z,14.50
2018-09-08T20:27:31.042Z,14.50
2018-09-08T20:29:59.128Z,14.50
2018-09-08T20:32:26.919Z,14.60
2018-09-08T20:34:55.304Z,14.50
2018-09-08T20:37:22.949Z,14.40
2018-09-08T20:39:50.559Z,14.30
2018-09-08T20:42:18.123Z,14.30
2018-09-08T20:44:45.823Z,14.20
2018-09-08T20:47:13.648Z,14.10
2018-09-08T20:49:41.267Z,14.00
2018-09-08T20:52:08.929Z,14.00
2018-09-08T20:54:36.556Z,14.00
2018-09-08T20:57:04.352Z,14.00
2018-09-08T20:59:32.531Z,14.00
2018-09-08T21:02:00.215Z,13.90
2018-09-08T21:04:27.899Z,13.90
2018-09-08T21:06:56.151Z,13.70
2018-09-08T21:09:24.583Z,13.70
2018-09-08T21:11:52.146Z,13.60
2018-09-08T21:14:19.831Z,13.70
2018-09-08T21:16:47.428Z,13.60
2018-09-08T21:19:15.034Z,13.60
2018-09-08T21:21:42.687Z,13.50
2018-09-08T21:24:10.396Z,13.50
2018-09-08T21:26:38.195Z,13.50
2018-09-08T21:29:05.995Z,13.60
2018-09-08T21:31:33.696Z,13.50
2018-09-08T21:34:01.264Z,13.40
2018-09-08T21:36:28.854Z,13.20
2018-09-08T21:38:56.408Z,13.30
2018-09-08T21:41:24.227Z,13.20
2018-09-08T21:43:51.907Z,13.20
2018-09-08T21:46:19.756Z,13.20
2018-09-08T21:48:47.471Z,13.10
2018-09-08T21:51:15.096Z,13.10
2018-09-08T21:53:42.707Z,13.10
2018-09-08T21:56:10.411Z,13.10
2018-09-08T21:58:38.072Z,13.10
2018-09-08T22:01:11.433Z,13.10
2018-09-08T22:03:39.182Z,13.00
2018-09-08T22:06:06.840Z,12.90
2018-09-08T22:08:36.814Z,12.90
2018-09-08T22:11:04.935Z,12.90
2018-09-08T22:13:32.794Z,12.90
2018-09-08T22:16:00.488Z,12.90
2018-09-08T22:18:28.875Z,12.80
2018-09-08T22:20:56.920Z,12.70
2018-09-08T22:23:25.235Z,12.50
2018-09-08T22:25:53.185Z,12.30
2018-09-08T22:28:20.763Z,12.30
2018-09-08T22:30:48.323Z,12.20
2018-09-08T22:33:16.288Z,12.20
2018-09-08T22:35:44.543Z,12.20
2018-09-08T22:38:13.151Z,12.20
2018-09-08T22:40:40.687Z,12.20
2018-09-08T22:43:08.575Z,12.30
2018-09-08T22:45:36.192Z,12.30
2018-09-08T22:48:04.626Z,12.30
2018-09-08T22:50:32.375Z,12.30
2018-09-08T22:53:00.115Z,12.20
2018-09-08T22:55:28.220Z,12.20
2018-09-08T22:57:56.558Z,12.20
2018-09-08T23:00:24.265Z,12.20
2018-09-08T23:02:51.800Z,12.10
2018-09-08T23:05:20.108Z,12.00
2018-09-08T23:07:47.920Z,12.10
2018-09-08T23:10:15.823Z,12.10
2018-09-08T23:12:43.658Z,12.10
2018-09-08T23:15:11.348Z,12.10
2018-09-08T23:17:38.930Z,12.10
2018-09-08T23:20:06.711Z,12.10
2018-09-08T23:22:34.490Z,11.90
2018-09-08T23:25:02.383Z,11.90
2018-09-08T23:27:29.951Z,11.90
2018-09-08T23:29:57.596Z,11.90
2018-09-08T23:32:25.227Z,11.90
2018-09-08T23:34:52.855Z,11.80
2018-09-08T23:37:21.081Z,11.80
2018-09-08T23:39:48.802Z,11.80
2018-09-08T23:42:16.571Z,11.80
2018-09-08T23:44:44.327Z,11.80
2018-09-08T23:47:11.847Z,11.90
2018-09-08T23:49:39.663Z,11.90
2018-09-08T23:52:07.297Z,12.00
2018-09-08T23:54:34.976Z,11.90
2018-09-08T23:57:03.279Z,11.90
2018-09-08T23:59:30.997Z,11.80
